createdAt,value
2022-10-08T00:01:38.507Z,101141.53
2022-10-08T00:08:41.499Z,101142.00
2022-10-08T00:15:43.283Z,101139.66
2022-10-08T00:22:45.203Z,101129.72
2022-10-08T00:29:47.054Z,101130.25
2022-10-08T00:36:51.132Z,101127.56
2022-10-08T00:43:54.506Z,101128.81
2022-10-08T00:50:56.103Z,101133.44
2022-10-08T00:58:01.130Z,101130.06
2022-10-08T01:05:04.713Z,101119.69
2022-10-08T01:12:11.070Z,101115.34
2022-10-08T01:19:38.255Z,101103.88
2022-10-08T01:26:50.859Z,101104.97
2022-10-08T01:34:00.327Z,101105.13
2022-10-08T01:41:04.045Z,101091.63
2022-10-08T01:48:08.028Z,101099.25
2022-10-08T01:55:15.551Z,101089.50
2022-10-08T02:02:21.448Z,101090.09
2022-10-08T02:09:25.316Z,101070.59
2022-10-08T02:16:28.828Z,101077.66
2022-10-08T02:23:42.388Z,101058.59
2022-10-08T02:30:48.680Z,101051.09
2022-10-08T02:37:56.425Z,101062.09
2022-10-08T02:45:00.733Z,101052.06
2022-10-08T02:52:02.362Z,101076.00
2022-10-08T02:59:04.957Z,101076.16
2022-10-08T03:06:08.442Z,101075.28
2022-10-08T03:13:12.530Z,101065.44
2022-10-08T03:20:14.098Z,101070.75
2022-10-08T03:27:15.650Z,101079.75
2022-10-08T03:34:17.245Z,101075.41
2022-10-08T03:41:18.935Z,101084.34
2022-10-08T03:48:21.170Z,101072.59
2022-10-08T03:55:22.761Z,101076.00
2022-10-08T04:02:24.331Z,101072.69
2022-10-08T04:09:26.314Z,101061.09
2022-10-08T04:16:27.867Z,101059.78
2022-10-08T04:23:31.518Z,101055.22
2022-10-08T04:30:33.053Z,101069.72
2022-10-08T04:37:34.611Z,101068.06
2022-10-08T04:44:36.259Z,101074.53
2022-10-08T04:51:37.803Z,101068.22
2022-10-08T04:58:39.469Z,101071.31
2022-10-08T05:05:41.737Z,101083.38
2022-10-08T05:12:43.288Z,101082.84
2022-10-08T05:19:44.849Z,101068.75
2022-10-08T05:26:58.613Z,101071.91
2022-10-08T05:34:00.723Z,101080.25
2022-10-08T05:41:23.652Z,101075.75
2022-10-08T05:48:25.209Z,101084.59
2022-10-08T05:55:27.448Z,101080.97
2022-10-08T06:02:29.157Z,101089.16
2022-10-08T06:09:30.784Z,101090.00
2022-10-08T06:16:32.596Z,101086.09
2022-10-08T06:23:34.369Z,101089.84
2022-10-08T06:30:36.079Z,101104.13
2022-10-08T06:37:37.746Z,101113.03
2022-10-08T06:44:39.331Z,101117.38
2022-10-08T06:51:40.989Z,101122.56
2022-10-08T06:58:44.765Z,101119.09
2022-10-08T07:05:46.360Z,101118.56
2022-10-08T07:12:49.618Z,101121.69
2022-10-08T07:19:52.287Z,101111.56
2022-10-08T07:26:53.855Z,101131.47
2022-10-08T07:33:56.352Z,101135.63
2022-10-08T07:40:57.893Z,101132.00
2022-10-08T07:47:59.976Z,101137.13
2022-10-08T07:55:01.621Z,101137.31
2022-10-08T08:02:03.501Z,101138.22
2022-10-08T08:09:05.115Z,101138.38
2022-10-08T08:16:08.493Z,101146.53
2022-10-08T08:23:10.071Z,101145.13
2022-10-08T08:30:13.102Z,101146.28
2022-10-08T08:37:14.676Z,101140.94
2022-10-08T08:44:16.105Z,101143.47
2022-10-08T08:51:17.659Z,101141.94
2022-10-08T08:58:41.563Z,101135.00
2022-10-08T09:05:44.411Z,101141.94
2022-10-08T09:12:46.514Z,101162.41
2022-10-08T09:19:48.631Z,101159.69
2022-10-08T09:26:50.973Z,101151.78
2022-10-08T09:34:03.954Z,101159.63
2022-10-08T09:41:18.863Z,101169.03
2022-10-08T09:48:30.182Z,101179.84
2022-10-08T09:55:35.176Z,101185.22
2022-10-08T10:02:37.268Z,101187.44
2022-10-08T10:09:47.680Z,101188.13
2022-10-08T10:16:50.279Z,101194.59
2022-10-08T10:24:09.986Z,101193.13
2022-10-08T10:31:31.666Z,101195.91
2022-10-08T10:38:38.500Z,101204.31
2022-10-08T10:45:46.534Z,101199.38
2022-10-08T10:53:03.469Z,101207.88
2022-10-08T11:00:08.540Z,101201.16
2022-10-08T11:07:30.921Z,101199.31
2022-10-08T11:14:44.538Z,101202.47
2022-10-08T11:21:55.517Z,101205.81
2022-10-08T11:29:18.791Z,101203.19
2022-10-08T11:36:37.245Z,101224.31
2022-10-08T11:43:59.730Z,101231.19
2022-10-08T11:51:19.651Z,101221.09
2022-10-08T11:58:25.305Z,101224.66
2022-10-08T12:05:26.782Z,101230.44
2022-10-08T12:12:50.560Z,101221.56
2022-10-08T12:20:17.395Z,101219.38
2022-10-08T12:27:29.811Z,101225.00
2022-10-08T12:34:31.699Z,101220.41
2022-10-08T12:41:42.156Z,101221.59
2022-10-08T12:48:51.707Z,101220.34
2022-10-08T12:55:55.052Z,101219.66
2022-10-08T13:03:07.270Z,101231.53
2022-10-08T13:10:20.220Z,101235.19
2022-10-08T13:17:32.899Z,101234.06
2022-10-08T13:24:38.732Z,101228.28
2022-10-08T13:31:57.991Z,101236.31
2022-10-08T13:38:59.595Z,101238.78
2022-10-08T13:46:01.233Z,101234.59
2022-10-08T13:53:02.889Z,101237.34
2022-10-08T14:00:05.229Z,101235.59
2022-10-08T14:07:08.836Z,101234.16
2022-10-08T14:14:14.517Z,101225.69
2022-10-08T14:21:16.338Z,101240.84
2022-10-08T14:28:17.942Z,101243.34
2022-10-08T14:35:19.783Z,101241.72
2022-10-08T14:42:21.361Z,101255.13
2022-10-08T14:49:23.970Z,101323.03
2022-10-08T14:56:25.782Z,101271.41
2022-10-08T15:03:27.368Z,101278.41
2022-10-08T15:10:29.004Z,101290.97
2022-10-08T15:17:30.613Z,101302.59
2022-10-08T15:24:32.189Z,101307.59
2022-10-08T15:31:33.815Z,101331.28
2022-10-08T15:38:35.392Z,101342.31
2022-10-08T15:45:46.002Z,101349.53
2022-10-08T15:52:47.937Z,101372.53
2022-10-08T15:59:49.678Z,101369.25
2022-10-08T16:06:51.243Z,101384.28
2022-10-08T16:13:54.496Z,101388.63
2022-10-08T16:20:56.184Z,101405.00
2022-10-08T16:27:59.206Z,101401.53
2022-10-08T16:35:00.779Z,101420.00
2022-10-08T16:42:02.296Z,101424.84
2022-10-08T16:49:05.602Z,101433.38
2022-10-08T16:56:07.167Z,101441.38
2022-10-08T17:03:08.738Z,101463.28
2022-10-08T17:10:10.632Z,101480.88
2022-10-08T17:17:12.306Z,101499.53
2022-10-08T17:24:14.175Z,101509.78
2022-10-08T17:31:20.578Z,101518.38
2022-10-08T17:38:22.179Z,101535.63
2022-10-08T17:45:23.830Z,101534.25
2022-10-08T17:52:25.416Z,101543.03
2022-10-08T17:59:27.066Z,101557.91
2022-10-08T18:06:29.275Z,101567.75
2022-10-08T18:13:30.978Z,101585.56
2022-10-08T18:20:32.607Z,101596.00
2022-10-08T18:27:34.234Z,101596.84
2022-10-08T18:34:35.829Z,101616.91
2022-10-08T18:41:41.031Z,101617.00
2022-10-08T18:48:42.867Z,101616.38
2022-10-08T18:55:49.432Z,101634.78
2022-10-08T19:02:54.241Z,101649.47
2022-10-08T19:09:55.961Z,101649.72
2022-10-08T19:16:57.543Z,101655.47
2022-10-08T19:23:59.267Z,101667.53
2022-10-08T19:31:00.916Z,101669.59
2022-10-08T19:38:02.632Z,101693.44
2022-10-08T19:45:04.692Z,101696.44
2022-10-08T19:52:06.390Z,101702.72
2022-10-08T19:59:09.167Z,101709.16
2022-10-08T20:06:12.906Z,101715.66
2022-10-08T20:13:14.467Z,101720.41
2022-10-08T20:20:32.454Z,101731.31
2022-10-08T20:27:34.768Z,101747.09
2022-10-08T20:34:37.712Z,101749.16
2022-10-08T20:41:39.429Z,101763.75
2022-10-08T20:48:41.862Z,101762.31
2022-10-08T20:55:43.417Z,101781.88
2022-10-08T21:02:45.062Z,101783.63
2022-10-08T21:09:47.056Z,101796.25
2022-10-08T21:16:48.694Z,101807.13
2022-10-08T21:23:50.309Z,101820.91
2022-10-08T21:30:54.967Z,101821.13
2022-10-08T21:37:56.580Z,101822.72
2022-10-08T21:44:58.827Z,101824.75
2022-10-08T21:52:00.389Z,101828.47
2022-10-08T21:59:02.549Z,101834.22
2022-10-08T22:06:04.572Z,101840.63
2022-10-08T22:13:06.136Z,101840.84
2022-10-08T22:20:08.055Z,101849.97
2022-10-08T22:27:09.689Z,101858.41
2022-10-08T22:34:11.395Z,101861.97
2022-10-08T22:41:15.267Z,101869.66
2022-10-08T22:48:16.846Z,101869.88
2022-10-08T22:55:18.523Z,101867.03
2022-10-08T23:02:20.126Z,101871.50
2022-10-08T23:09:21.695Z,101875.13
2022-10-08T23:16:23.606Z,101874.25
2022-10-08T23:23:25.228Z,101884.25
2022-10-08T23:30:42.628Z,101879.03
2022-10-08T23:37:47.145Z,101871.16
2022-10-08T23:44:48.717Z,101886.41
2022-10-08T23:51:50.303Z,101895.56
2022-10-08T23:58:51.886Z,101903.13
